Agoura, CA

4:30 AM PDT on September 30, 2014 (GMT -0700)
Conejo View | Change Station
CLOSE
Current Station
Personal Weather Station
Location: Agoura Hills, CA
Elevation: 932 ft
Nearby Weather Stations
Active Advisory: Fire Weather Watch

Elev 932 ft 34.15 °N, 118.75 °W | Updated 2 minutes ago

Clear
Clear
52.3 °F
Feels Like 52.3 °F
N
0.0
Wind Variable Wind from ESE

Today
High -- | Low -- °F
--% Chance of Precip.
Yesterday
High -- | Low -- °F
Precip. -- in
6:48 AM 6:40 PM
Waxing Crescent, 36% visible
Pressure 29.84 in
Visibility 10.0 miles
Clouds Clear
Dew Point 48 °F
Humidity 85%
Rainfall 0.00 in
Snow Depth 1 in , 1 in , 0 in
UV 0 out of 12
Pollen 5.30 out of 12
Ozone Good
PM2.5 Moderate
Flu Activity Not available.
METAR KVNY 301051Z AUTO 00000KT 10SM CLR 17/10 A2986 RMK AO2 SLP104 T01670100

More Conditions Fewer Conditions

Pressure 29.84 in
Visibility 10.0 miles
Clouds Clear
Dew Point 48 °F
Humidity 85%
Rainfall 0.00 in
Snow Depth 1 in , 1 in , 0 in
UV 0 out of 12
Pollen 5.30 out of 12
Ozone Good
PM2.5 Moderate
Flu Activity Not available.
METAR KVNY 301051Z AUTO 00000KT 10SM CLR 17/10 A2986 RMK AO2 SLP104 T01670100

More Conditions Fewer Conditions

10-Day Weather Forecast

Almanac

Astronomy

Sep. 30, 2014 Rise Set
Actual Time 6:48 AM PDT 6:40 PM PDT
Civil Twilight 6:23 AM PDT 7:05 PM PDT
Nautical Twilight 5:54 AM PDT 7:34 PM PDT
Astronomical Twilight 5:25 AM PDT 8:03 PM PDT
Moon 12:49 PM PDT 11:27 PM PDT
Length of Visible Light 12h 41m
Length of Day
11h 51m
Tomorrow will be 2m 7s shorter.
Waxing Crescent, 36% of the Moon is Illuminated
Today
Waxing Crescent
Oct 1
First Quarter
Oct 8
Full
Oct 15
Last Quarter
Oct 23
New

Today's Extremes

State Highs State Lows

Community

WunderPhotos

Upload Photos

1,757,618 photos uploaded!

WunderBlogs® & News

Nearby

Air Quality

  Air Quality AQ Index Pollutant
Yesterday Moderate
PM2.5
Yesterday Good
OZONE
Current Moderate
PM2.5
Current Good
OZONE
Tuesday Good
PM10
Tuesday Good
OZONE
Tuesday Good
CO
Tuesday Good
NO2

Snow Depth

Station Depth Elevation
Adin Mountain 1 in 6200 ft
Rubicon #2 1 in 7500 ft
Ebbetts Pass 0 in 8700 ft
Tahoe City Cross 0 in 6750 ft
Summit Meadow 1 in 9122 ft

Earthquake Activity

City Distance Mag. Time & Date
No recent earthquake activity has been reported nearby.
Minimum magnitude displayed is 2.5.

Coastal Water Temperatures

Place Temperature
Santa Monica Pier 69.1 °F
Los Angeles, CA 66.9 °F
La Jolla, CA 66.9 °F

Nearby Weather Stations